createdAt,value
2023-08-26T00:00:03.403Z,82.6
2023-08-26T00:01:02.310Z,82.6
2023-08-26T00:02:03.317Z,82.5
2023-08-26T00:03:02.251Z,82.6
2023-08-26T00:04:01.647Z,82.6
2023-08-26T00:05:02.130Z,82.6
2023-08-26T00:06:03.147Z,82.7
2023-08-26T00:07:01.991Z,82.7
2023-08-26T00:08:03.040Z,82.8
2023-08-26T00:09:03.572Z,82.7
2023-08-26T00:10:01.382Z,82.8
2023-08-26T00:11:03.494Z,83
2023-08-26T00:12:01.266Z,83
2023-08-26T00:13:01.770Z,83
2023-08-26T00:14:02.194Z,83
2023-08-26T00:15:03.955Z,83.1
2023-08-26T00:16:01.620Z,83
2023-08-26T00:17:02.093Z,82.8
2023-08-26T00:18:01.704Z,82.8
2023-08-26T00:19:01.993Z,82.7
2023-08-26T00:20:03.029Z,82.7
2023-08-26T00:21:01.915Z,82.5
2023-08-26T00:22:01.391Z,82.3
2023-08-26T00:23:02.047Z,82.3
2023-08-26T00:24:01.298Z,82.3
2023-08-26T00:25:01.820Z,82.3
2023-08-26T00:26:02.906Z,82.3
2023-08-26T00:27:01.733Z,82.3
2023-08-26T00:28:02.373Z,82.2
2023-08-26T00:29:01.707Z,82
2023-08-26T00:30:02.136Z,82
2023-08-26T00:31:03.265Z,81.9
2023-08-26T00:32:02.035Z,81.9
2023-08-26T00:33:01.606Z,81.8
2023-08-26T00:34:02.011Z,81.8
2023-08-26T00:35:04.706Z,81.8
2023-08-26T00:36:01.883Z,81.6
2023-08-26T00:37:01.390Z,81.6
2023-08-26T00:38:01.845Z,81.5
2023-08-26T00:39:02.873Z,81.6
2023-08-26T00:40:01.788Z,81.6
2023-08-26T00:41:03.821Z,81.5
2023-08-26T00:42:03.406Z,81.4
2023-08-26T00:43:02.151Z,81.3
2023-08-26T00:44:01.523Z,81.2
2023-08-26T00:45:02.014Z,81.1
2023-08-26T00:46:03.092Z,81
2023-08-26T00:47:03.635Z,80.9
2023-08-26T00:48:03.090Z,80.9
2023-08-26T00:49:03.494Z,80.9
2023-08-26T00:50:02.921Z,80.9
2023-08-26T00:51:01.773Z,81
2023-08-26T00:52:02.221Z,81
2023-08-26T00:53:01.726Z,81
2023-08-26T00:54:03.788Z,81
2023-08-26T00:55:02.292Z,81
2023-08-26T00:56:03.698Z,80.9
2023-08-26T00:57:03.163Z,80.6
2023-08-26T00:58:01.998Z,80.7
2023-08-26T00:59:01.431Z,80.7
2023-08-26T01:00:03.593Z,80.5
2023-08-26T01:01:01.406Z,80.5
2023-08-26T01:02:03.469Z,80.4
2023-08-26T01:03:01.393Z,80.3
2023-08-26T01:04:01.809Z,80.2
2023-08-26T01:05:03.878Z,80.3
2023-08-26T01:06:03.299Z,80.3
2023-08-26T01:07:02.112Z,80.4
2023-08-26T01:08:01.592Z,80.3
2023-08-26T01:09:03.702Z,80.3
2023-08-26T01:10:03.186Z,80.4
2023-08-26T01:11:01.953Z,80.7
2023-08-26T01:12:01.400Z,80.8
2023-08-26T01:13:03.728Z,81
2023-08-26T01:14:01.335Z,80.9
2023-08-26T01:15:03.497Z,80.9
2023-08-26T01:17:03.377Z,81.1
2023-08-26T01:18:02.278Z,81.1
2023-08-26T01:19:03.306Z,81.1
2023-08-26T01:20:02.156Z,81.3
2023-08-26T01:21:01.592Z,81.3
2023-08-26T01:22:03.636Z,81.1
2023-08-26T01:23:03.148Z,81.1
2023-08-26T01:24:03.575Z,81
2023-08-26T01:25:01.412Z,80.9
2023-08-26T01:26:01.935Z,80.9
2023-08-26T01:27:01.363Z,80.8
2023-08-26T01:28:03.485Z,80.9
2023-08-26T01:29:02.940Z,80.9
2023-08-26T01:30:01.730Z,81
2023-08-26T01:31:02.233Z,81
2023-08-26T01:32:01.647Z,81
2023-08-26T01:33:02.161Z,80.9
2023-08-26T01:34:01.556Z,80.9
2023-08-26T01:35:02.058Z,80.8
2023-08-26T01:36:02.248Z,81
2023-08-26T01:37:03.620Z,81.1
2023-08-26T01:38:03.499Z,81.2
2023-08-26T01:39:01.884Z,81.2
2023-08-26T01:40:01.349Z,81.3
2023-08-26T01:41:01.808Z,81.5
2023-08-26T01:42:01.269Z,81.5
2023-08-26T01:43:01.725Z,81.6
2023-08-26T01:44:03.820Z,81.6
2023-08-26T01:45:01.666Z,81.6
2023-08-26T01:46:02.131Z,81.6
2023-08-26T01:47:03.218Z,81.5
2023-08-26T01:48:02.025Z,81.3
2023-08-26T01:49:03.129Z,81.2
2023-08-26T01:50:01.948Z,81.2
2023-08-26T01:51:01.374Z,81
2023-08-26T01:52:01.847Z,81
2023-08-26T01:53:01.334Z,81.3
2023-08-26T01:54:01.796Z,81.3
2023-08-26T01:55:02.244Z,81.2
2023-08-26T01:56:01.765Z,81.4
2023-08-26T01:57:03.804Z,81.1
2023-08-26T01:58:01.618Z,81
2023-08-26T01:59:02.060Z,80.9
2023-08-26T02:00:01.511Z,81.1
2023-08-26T02:01:03.606Z,80.8
2023-08-26T02:02:03.089Z,80.9
2023-08-26T02:03:03.579Z,80.4
2023-08-26T02:04:02.937Z,80.3
2023-08-26T02:05:03.373Z,80.2
2023-08-26T02:06:03.848Z,80.2
2023-08-26T02:07:01.665Z,79.8
2023-08-26T02:08:02.143Z,79.7
2023-08-26T02:09:01.621Z,79.7
2023-08-26T02:10:02.083Z,79.7
2023-08-26T02:11:01.614Z,79.6
2023-08-26T02:12:03.715Z,79.5
2023-08-26T02:13:01.439Z,79.3
2023-08-26T02:14:01.888Z,79.1
2023-08-26T02:15:02.005Z,78.9
2023-08-26T02:16:01.960Z,78.5
2023-08-26T02:17:02.984Z,77.7
2023-08-26T02:18:03.448Z,77.8
2023-08-26T02:19:03.802Z,77
2023-08-26T02:20:01.666Z,76.2
2023-08-26T02:21:03.808Z,76
2023-08-26T02:22:03.203Z,75.7
2023-08-26T02:23:02.086Z,75.7
2023-08-26T02:24:01.587Z,76.3
2023-08-26T02:25:02.027Z,76.5
2023-08-26T02:26:01.456Z,76.6
2023-08-26T02:27:02.003Z,75.7
2023-08-26T02:28:01.398Z,75.5
2023-08-26T02:29:03.505Z,75.3
2023-08-26T02:30:01.321Z,75.8
2023-08-26T02:31:03.412Z,75.5
2023-08-26T02:32:03.972Z,75
2023-08-26T02:33:03.344Z,75.2
2023-08-26T02:34:02.153Z,75.7
2023-08-26T02:35:01.642Z,76.4
2023-08-26T02:36:02.100Z,76.5
2023-08-26T02:37:01.580Z,77.4
2023-08-26T02:38:02.024Z,77.7
2023-08-26T02:39:03.126Z,78.1
2023-08-26T02:40:01.962Z,77.8
2023-08-26T02:41:01.389Z,78
2023-08-26T02:42:03.500Z,78.4
2023-08-26T02:43:02.970Z,78.4
2023-08-26T02:44:01.742Z,78.4
2023-08-26T02:45:02.246Z,78.5
2023-08-26T02:46:01.762Z,78.6
2023-08-26T02:47:03.791Z,78.9
2023-08-26T02:48:01.673Z,79.1
2023-08-26T02:49:03.693Z,79.5
2023-08-26T02:50:03.230Z,79.7
2023-08-26T02:51:01.995Z,79.7
2023-08-26T02:52:03.098Z,79.6
2023-08-26T02:53:03.594Z,79.6
2023-08-26T02:54:01.340Z,79.7
2023-08-26T02:55:03.432Z,79.7
2023-08-26T02:56:01.404Z,79.9
2023-08-26T02:57:01.773Z,80.1
2023-08-26T02:58:03.800Z,80.4
2023-08-26T02:59:01.643Z,80.6
2023-08-26T03:00:02.100Z,81.1
2023-08-26T03:01:01.615Z,81.2
2023-08-26T03:02:03.649Z,81.5
2023-08-26T03:03:01.638Z,81.3
2023-08-26T03:04:03.605Z,81.3
2023-08-26T03:05:01.426Z,81.3
2023-08-26T03:06:01.848Z,81.4
2023-08-26T03:07:02.968Z,81.6
2023-08-26T03:08:01.794Z,81.6
2023-08-26T03:09:02.260Z,81.6
2023-08-26T03:10:03.382Z,81.6
2023-08-26T03:11:03.819Z,81.6
2023-08-26T03:12:01.603Z,81.7
2023-08-26T03:13:02.077Z,81.8
2023-08-26T03:14:03.144Z,82
2023-08-26T03:15:02.002Z,82.1
2023-08-26T03:16:01.529Z,82.3
2023-08-26T03:17:03.619Z,82.5
2023-08-26T03:18:01.590Z,82.7
2023-08-26T03:19:03.474Z,82.8
2023-08-26T03:20:01.280Z,82.9
2023-08-26T03:21:01.755Z,83
2023-08-26T03:22:02.242Z,83.1
2023-08-26T03:23:01.735Z,83.2
2023-08-26T03:24:02.125Z,83.4
2023-08-26T03:25:01.601Z,83.5
2023-08-26T03:26:02.069Z,83.6
2023-08-26T03:27:01.527Z,83.6
2023-08-26T03:28:02.011Z,83.7
2023-08-26T03:29:03.103Z,83.7
2023-08-26T03:30:01.871Z,83.9
2023-08-26T03:31:03.032Z,84.1
2023-08-26T03:32:01.777Z,84.2
2023-08-26T03:33:03.928Z,84.3
2023-08-26T03:34:03.366Z,84.3
2023-08-26T03:35:03.802Z,84.3
2023-08-26T03:36:03.713Z,84.4
2023-08-26T03:37:03.142Z,84.4
2023-08-26T03:38:01.967Z,84.5
2023-08-26T03:39:03.040Z,84.6
2023-08-26T03:40:03.469Z,84.6
2023-08-26T03:41:01.281Z,84.6
2023-08-26T03:42:01.742Z,84.8
2023-08-26T03:43:02.233Z,84.8
2023-08-26T03:44:01.643Z,84.9
2023-08-26T03:45:02.166Z,84.9
2023-08-26T03:46:01.820Z,85
2023-08-26T03:47:02.051Z,84.9
2023-08-26T03:48:01.594Z,85.1
2023-08-26T03:49:01.955Z,85
2023-08-26T03:50:03.089Z,85
2023-08-26T03:51:01.894Z,85
2023-08-26T03:52:01.335Z,85.1
2023-08-26T03:53:01.805Z,85.1
2023-08-26T03:54:02.248Z,85.2
2023-08-26T03:55:01.691Z,85.2
2023-08-26T03:56:02.156Z,85.2
2023-08-26T03:57:01.628Z,85.3
2023-08-26T03:58:02.104Z,85.4
2023-08-26T03:59:01.583Z,85.4
2023-08-26T04:00:02.039Z,85.4
2023-08-26T04:01:03.201Z,85.5
2023-08-26T04:02:01.909Z,85.5
2023-08-26T04:03:03.062Z,85.6
2023-08-26T04:04:01.835Z,85.6
2023-08-26T04:05:01.285Z,85.6
2023-08-26T04:06:01.728Z,85.6
2023-08-26T04:07:03.816Z,85.7
2023-08-26T04:08:01.722Z,85.8
2023-08-26T04:09:03.746Z,85.8
2023-08-26T04:10:01.597Z,85.8
2023-08-26T04:11:03.751Z,85.7
2023-08-26T04:12:01.446Z,85.7
2023-08-26T04:13:03.539Z,85.7
2023-08-26T04:14:01.348Z,85.8
2023-08-26T04:15:03.466Z,85.9
2023-08-26T04:16:02.282Z,86
2023-08-26T04:17:01.715Z,86.1
2023-08-26T04:18:02.230Z,86.1
2023-08-26T04:19:03.280Z,86.1
2023-08-26T04:20:03.750Z,86.2
2023-08-26T04:21:01.574Z,86.2
2023-08-26T04:22:02.028Z,86.1
2023-08-26T04:23:01.484Z,86.2
2023-08-26T04:24:03.569Z,86.3
2023-08-26T04:25:01.417Z,86.3
2023-08-26T04:26:01.901Z,86.3
2023-08-26T04:27:01.389Z,86.4
2023-08-26T04:28:01.846Z,86.3
2023-08-26T04:29:02.948Z,86.4
2023-08-26T04:30:01.900Z,86.4
2023-08-26T04:31:01.411Z,86.4
2023-08-26T04:32:03.435Z,86.4
2023-08-26T04:33:02.344Z,86.3
2023-08-26T04:34:01.648Z,86.2
2023-08-26T04:35:02.164Z,86.1
2023-08-26T04:36:01.589Z,85.8
2023-08-26T04:37:02.087Z,85.8
2023-08-26T04:38:03.234Z,85.8
2023-08-26T04:39:02.031Z,85.9
2023-08-26T04:40:01.449Z,85.8
2023-08-26T04:41:03.604Z,85.6
2023-08-26T04:42:03.012Z,85.6
2023-08-26T04:43:03.528Z,85.6
2023-08-26T04:44:02.886Z,85.6
2023-08-26T04:45:01.747Z,85.6
2023-08-26T04:46:02.269Z,85.7
2023-08-26T04:47:01.738Z,85.8
2023-08-26T04:48:02.164Z,85.9
2023-08-26T04:49:03.242Z,86
2023-08-26T04:50:03.692Z,86.1
2023-08-26T04:51:01.501Z,86.3
2023-08-26T04:52:01.992Z,86.3
2023-08-26T04:53:03.045Z,86.5
2023-08-26T04:54:03.531Z,86.7
2023-08-26T04:55:02.941Z,86.8
2023-08-26T04:56:01.900Z,86.8
2023-08-26T04:57:03.835Z,87
2023-08-26T04:58:03.271Z,87.1
2023-08-26T04:59:02.100Z,87.2
2023-08-26T05:00:03.213Z,87.2
2023-08-26T05:01:02.092Z,87.2
2023-08-26T05:02:01.334Z,87.3
2023-08-26T05:03:01.944Z,87.3
2023-08-26T05:04:02.964Z,87.5
2023-08-26T05:05:03.532Z,87.6
2023-08-26T05:06:02.895Z,87.7
2023-08-26T05:07:01.909Z,87.8
2023-08-26T05:08:01.263Z,87.9
2023-08-26T05:09:03.410Z,87.9
2023-08-26T05:10:01.269Z,87.9
2023-08-26T05:11:03.438Z,88
2023-08-26T05:12:01.257Z,88.1
2023-08-26T05:13:03.478Z,88.1
2023-08-26T05:14:01.340Z,88.1
2023-08-26T05:15:02.006Z,88.1
2023-08-26T05:16:03.108Z,88.2
2023-08-26T05:17:02.012Z,88.3
2023-08-26T05:18:01.497Z,88.3
2023-08-26T05:19:01.974Z,88.3
2023-08-26T05:20:01.454Z,88.3
2023-08-26T05:21:01.972Z,88.3
2023-08-26T05:22:01.481Z,88.3
2023-08-26T05:23:02.013Z,88.2
2023-08-26T05:24:03.017Z,88.2
2023-08-26T05:25:02.108Z,88.2
2023-08-26T05:26:01.555Z,88.2
2023-08-26T05:27:02.102Z,88.2
2023-08-26T05:28:01.598Z,88.1
2023-08-26T05:29:02.045Z,88.1
2023-08-26T05:30:01.573Z,88
2023-08-26T05:31:03.829Z,87.9
2023-08-26T05:32:01.594Z,87.9
2023-08-26T05:33:03.895Z,88
2023-08-26T05:34:01.662Z,87.9
2023-08-26T05:35:02.114Z,87.9
2023-08-26T05:36:01.564Z,88.1
2023-08-26T05:37:03.675Z,88.1
2023-08-26T05:38:01.467Z,88.1
2023-08-26T05:39:02.047Z,88.1
2023-08-26T05:40:01.382Z,87.9
2023-08-26T05:41:01.988Z,87.9
2023-08-26T05:42:02.980Z,87.9
2023-08-26T05:43:01.810Z,87.9
2023-08-26T05:44:01.256Z,87.9
2023-08-26T05:45:03.353Z,87.8
2023-08-26T05:46:02.226Z,87.7
2023-08-26T05:47:01.626Z,87.7
2023-08-26T05:48:02.447Z,87.7
2023-08-26T05:49:03.224Z,87.6
2023-08-26T05:50:03.635Z,87.5
2023-08-26T05:51:01.490Z,87.3
2023-08-26T05:52:03.574Z,87.2
2023-08-26T05:53:04.302Z,87.3
2023-08-26T05:54:01.816Z,87.3
2023-08-26T05:55:01.311Z,87.4
2023-08-26T05:56:01.801Z,87.2
2023-08-26T05:57:02.277Z,87.2
2023-08-26T05:58:01.752Z,87
2023-08-26T05:59:03.831Z,86.8
2023-08-26T06:00:01.638Z,86.7
2023-08-26T06:01:03.743Z,86.7
2023-08-26T06:02:01.583Z,86.5
2023-08-26T06:03:03.714Z,86.6
2023-08-26T06:04:03.256Z,86.6
2023-08-26T06:05:03.570Z,86.5
2023-08-26T06:06:03.008Z,86.7
2023-08-26T06:07:03.447Z,86.6
2023-08-26T06:08:01.273Z,86.2
2023-08-26T06:09:01.733Z,85.9
2023-08-26T06:10:03.798Z,85.5
2023-08-26T06:11:03.302Z,85.4
2023-08-26T06:12:02.061Z,85
2023-08-26T06:13:01.544Z,84.8
2023-08-26T06:14:02.034Z,84.9
2023-08-26T06:15:03.870Z,84.7
2023-08-26T06:16:01.496Z,84.6
2023-08-26T06:17:02.026Z,84.4
2023-08-26T06:18:01.490Z,84.2
2023-08-26T06:19:03.545Z,84.2
2023-08-26T06:20:03.032Z,84.1
2023-08-26T06:21:03.442Z,83.8
2023-08-26T06:22:02.967Z,83.7
2023-08-26T06:23:03.373Z,83.9
2023-08-26T06:24:03.814Z,84.1
2023-08-26T06:25:01.612Z,83.9
2023-08-26T06:26:02.163Z,83.7
2023-08-26T06:27:01.507Z,83.9
2023-08-26T06:28:02.121Z,84.2
2023-08-26T06:29:01.451Z,84.1
2023-08-26T06:30:03.565Z,84.2
2023-08-26T06:31:01.390Z,84.3
2023-08-26T06:32:01.916Z,84.3
2023-08-26T06:33:01.356Z,83.9
2023-08-26T06:34:01.822Z,83.8
2023-08-26T06:35:01.293Z,83.8
2023-08-26T06:36:01.735Z,83.6
2023-08-26T06:37:03.843Z,83.6
2023-08-26T06:38:03.344Z,83.9
2023-08-26T06:39:03.802Z,84
2023-08-26T06:40:01.587Z,83.7
2023-08-26T06:41:03.720Z,83.5
2023-08-26T06:42:01.488Z,83.5
2023-08-26T06:43:01.973Z,83.6
2023-08-26T06:44:01.439Z,83.3
2023-08-26T06:45:03.594Z,83.6
2023-08-26T06:46:01.354Z,83.2
2023-08-26T06:47:01.816Z,83.1
2023-08-26T06:48:01.290Z,83
2023-08-26T06:49:03.355Z,82.9
2023-08-26T06:50:02.177Z,83.1
2023-08-26T06:51:01.653Z,83.1
2023-08-26T06:52:02.067Z,83.1
2023-08-26T06:53:01.562Z,83.1
2023-08-26T06:54:03.637Z,83.4
2023-08-26T06:55:01.458Z,82.8
2023-08-26T06:56:03.552Z,83.1
2023-08-26T06:57:01.362Z,82.9
2023-08-26T06:58:03.487Z,82.7
2023-08-26T06:59:01.284Z,83
2023-08-26T07:00:03.370Z,83.2
2023-08-26T07:01:03.911Z,83.1
2023-08-26T07:02:01.634Z,82.8
2023-08-26T07:03:02.168Z,82.8
2023-08-26T07:04:01.625Z,82.7
2023-08-26T07:05:03.670Z,82.6
2023-08-26T07:06:01.503Z,82.6
2023-08-26T07:07:01.982Z,82.4
2023-08-26T07:08:01.382Z,82.6
2023-08-26T07:09:01.907Z,82.6
2023-08-26T07:10:02.977Z,82.5
2023-08-26T07:11:03.453Z,82
2023-08-26T07:12:03.318Z,81.8
2023-08-26T07:13:01.747Z,82.1
2023-08-26T07:14:02.170Z,82.3
2023-08-26T07:15:03.250Z,82.4
2023-08-26T07:16:02.092Z,82.1
2023-08-26T07:17:01.551Z,82.1
2023-08-26T07:18:03.656Z,82.1
2023-08-26T07:19:01.486Z,81.7
2023-08-26T07:20:01.944Z,81.8
2023-08-26T07:21:01.377Z,81.8
2023-08-26T07:22:01.964Z,82
2023-08-26T07:23:01.327Z,81.2
2023-08-26T07:24:01.786Z,81.5
2023-08-26T07:25:01.282Z,81.5
2023-08-26T07:26:03.384Z,81.4
2023-08-26T07:27:02.301Z,81
2023-08-26T07:28:01.673Z,81.4
2023-08-26T07:29:02.148Z,81.4
2023-08-26T07:30:01.629Z,81.5
2023-08-26T07:31:02.198Z,81.1
2023-08-26T07:32:01.505Z,81.3
2023-08-26T07:33:03.710Z,81
2023-08-26T07:34:01.430Z,80.9
2023-08-26T07:35:01.897Z,80.8
2023-08-26T07:36:02.003Z,80.6
2023-08-26T07:37:01.884Z,80.9
2023-08-26T07:38:01.328Z,81.2
2023-08-26T07:39:03.452Z,80.8
2023-08-26T07:40:02.266Z,81.2
2023-08-26T07:41:01.726Z,80.5
2023-08-26T07:42:02.188Z,81.1
2023-08-26T07:43:01.670Z,80.5
2023-08-26T07:44:02.106Z,80.6
2023-08-26T07:45:03.249Z,80.6
2023-08-26T07:47:01.579Z,80.4
2023-08-26T07:49:01.477Z,80.9
2023-08-26T07:50:01.875Z,80.5
2023-08-26T07:51:01.384Z,79.8
2023-08-26T07:52:01.839Z,80.2
2023-08-26T07:53:01.380Z,80
2023-08-26T07:54:01.798Z,79.9
2023-08-26T07:55:02.285Z,80.3
2023-08-26T07:56:01.701Z,80.4
2023-08-26T07:57:03.833Z,80.4
2023-08-26T07:58:01.641Z,79.4
2023-08-26T07:59:02.119Z,79
2023-08-26T08:00:01.623Z,79.3
2023-08-26T08:01:03.802Z,79.3
2023-08-26T08:02:01.512Z,79.5
2023-08-26T08:03:02.193Z,78.5
2023-08-26T08:04:03.144Z,78.1
2023-08-26T08:05:03.512Z,78.7
2023-08-26T08:06:01.354Z,78.6
2023-08-26T08:07:03.426Z,77.9
2023-08-26T08:08:02.252Z,78
2023-08-26T08:09:03.347Z,78
2023-08-26T08:10:02.153Z,77.9
2023-08-26T08:11:03.225Z,77.9
2023-08-26T08:12:03.678Z,78.8
2023-08-26T08:13:01.508Z,78.2
2023-08-26T08:14:01.942Z,78.8
2023-08-26T08:15:01.438Z,78.7
2023-08-26T08:16:01.947Z,78.3
2023-08-26T08:17:01.974Z,78.1
2023-08-26T08:18:03.105Z,77.5
2023-08-26T08:19:02.087Z,77.3
2023-08-26T08:20:01.327Z,77.5
2023-08-26T08:21:01.818Z,77.3
2023-08-26T08:22:02.223Z,77.5
2023-08-26T08:23:01.713Z,76.6
2023-08-26T08:24:02.144Z,76.1
2023-08-26T08:25:01.684Z,76.1
2023-08-26T08:26:02.116Z,76.5
2023-08-26T08:27:01.564Z,76.8
2023-08-26T08:28:02.050Z,77
2023-08-26T08:29:01.499Z,77.5
2023-08-26T08:30:02.072Z,77.5
2023-08-26T08:31:03.116Z,77.1
2023-08-26T08:32:01.906Z,77.3
2023-08-26T08:33:01.697Z,77.5
2023-08-26T08:34:01.857Z,76.7
2023-08-26T08:35:01.307Z,77.2
2023-08-26T08:36:01.832Z,77.3
2023-08-26T08:37:02.297Z,77.5
2023-08-26T08:38:01.712Z,78.4
2023-08-26T08:39:02.230Z,77.3
2023-08-26T08:40:01.659Z,76.8
2023-08-26T08:41:03.780Z,77
2023-08-26T08:42:03.193Z,76.5
2023-08-26T08:43:03.727Z,76.2
2023-08-26T08:44:01.487Z,77.4
2023-08-26T08:45:03.588Z,76.8
2023-08-26T08:46:03.049Z,76.6
2023-08-26T08:47:03.579Z,76.5
2023-08-26T08:48:01.400Z,76.6
2023-08-26T08:49:01.850Z,76.4
2023-08-26T08:50:02.872Z,76.6
2023-08-26T08:51:01.719Z,75.8
2023-08-26T08:52:03.792Z,76
2023-08-26T08:53:01.652Z,75.9
2023-08-26T08:54:02.126Z,76
2023-08-26T08:55:01.569Z,75.7
2023-08-26T08:56:02.064Z,75.8
2023-08-26T08:57:03.869Z,76.8
2023-08-26T08:58:01.428Z,76.6
2023-08-26T08:59:01.974Z,76.1
2023-08-26T09:00:03.019Z,76.5
2023-08-26T09:01:01.859Z,76.5
2023-08-26T09:02:01.330Z,76.5
2023-08-26T09:03:03.411Z,76
2023-08-26T09:04:03.874Z,76.6
2023-08-26T09:05:03.316Z,76.2
2023-08-26T09:06:03.796Z,76.2
2023-08-26T09:07:01.603Z,76.5
2023-08-26T09:08:02.047Z,76.2
2023-08-26T09:09:01.510Z,76.2
2023-08-26T09:10:03.058Z,75.8
2023-08-26T09:11:01.403Z,76.4
2023-08-26T09:12:01.919Z,76.3
2023-08-26T09:13:02.984Z,76.4
2023-08-26T09:14:03.498Z,76.4
2023-08-26T09:15:02.956Z,76.8
2023-08-26T09:16:01.731Z,76.5
2023-08-26T09:17:02.180Z,76.7
2023-08-26T09:18:01.965Z,76.5
2023-08-26T09:19:02.485Z,76.2
2023-08-26T09:20:01.596Z,76.8
2023-08-26T09:21:02.015Z,76.4
2023-08-26T09:22:01.457Z,76.4
2023-08-26T09:23:01.972Z,75.7
2023-08-26T09:24:01.454Z,76.3
2023-08-26T09:25:01.949Z,76.5
2023-08-26T09:26:01.301Z,76.3
2023-08-26T09:27:01.802Z,76.5
2023-08-26T09:28:02.241Z,76.3
2023-08-26T09:29:03.333Z,76.4
2023-08-26T09:30:03.827Z,76.6
2023-08-26T09:31:03.302Z,76.3
2023-08-26T09:32:02.048Z,77.2
2023-08-26T09:33:03.171Z,77.4
2023-08-26T09:34:03.553Z,76.9
2023-08-26T09:35:03.174Z,76.8
2023-08-26T09:37:01.280Z,76.3
2023-08-26T09:38:01.774Z,75.7
2023-08-26T09:39:03.841Z,76.2
2023-08-26T09:40:01.687Z,75.5
2023-08-26T09:41:03.791Z,76.1
2023-08-26T09:42:01.606Z,76.1
2023-08-26T09:43:03.674Z,75.3
2023-08-26T09:44:03.160Z,74.7
2023-08-26T09:45:01.955Z,74.9
2023-08-26T09:46:01.428Z,75
2023-08-26T09:47:01.947Z,74.2
2023-08-26T09:48:01.625Z,73.6
2023-08-26T09:49:01.784Z,73.4
2023-08-26T09:50:02.240Z,73.6
2023-08-26T09:51:03.350Z,73.5
2023-08-26T09:52:02.194Z,73
2023-08-26T09:53:01.687Z,73.2
2023-08-26T09:54:02.082Z,73.5
2023-08-26T09:55:03.205Z,73.1
2023-08-26T09:56:02.095Z,73.2
2023-08-26T09:57:03.182Z,75.4
2023-08-26T09:58:01.946Z,75.3
2023-08-26T09:59:01.403Z,74.5
2023-08-26T10:00:01.891Z,75.2
2023-08-26T10:01:02.997Z,72.3
2023-08-26T10:02:01.887Z,72
2023-08-26T10:03:01.395Z,74.4
2023-08-26T10:04:01.805Z,73.6
2023-08-26T10:05:02.309Z,72.7
2023-08-26T10:06:01.706Z,72.6
2023-08-26T10:07:03.840Z,73.6
2023-08-26T10:08:01.664Z,72.9
2023-08-26T10:09:03.779Z,71.9
2023-08-26T10:10:03.217Z,71.7
2023-08-26T10:11:03.668Z,72.5
2023-08-26T10:12:01.464Z,70.4
2023-08-26T10:13:01.957Z,70.6
2023-08-26T10:14:01.413Z,72.2
2023-08-26T10:15:01.902Z,72.1
2023-08-26T10:16:03.917Z,71.7
2023-08-26T10:17:03.627Z,70.9
2023-08-26T10:18:01.407Z,70.3
2023-08-26T10:19:01.847Z,70.9
2023-08-26T10:20:01.360Z,70.5
2023-08-26T10:21:01.800Z,70.7
2023-08-26T10:22:02.934Z,71.8
2023-08-26T10:23:01.811Z,71.2
2023-08-26T10:24:02.198Z,71.1
2023-08-26T10:25:01.688Z,72.5
2023-08-26T10:26:02.123Z,71.4
2023-08-26T10:27:03.254Z,71.7
2023-08-26T10:28:03.707Z,71.5
2023-08-26T10:29:01.500Z,70.9
2023-08-26T10:30:02.013Z,70.9
2023-08-26T10:31:01.465Z,70.7
2023-08-26T10:32:03.617Z,70.8
2023-08-26T10:33:01.408Z,70.3
2023-08-26T10:34:03.484Z,70.8
2023-08-26T10:35:01.328Z,70.6
2023-08-26T10:36:01.858Z,70.2
2023-08-26T10:37:01.258Z,71.2
2023-08-26T10:38:01.765Z,70.7
2023-08-26T10:39:02.190Z,70.7
2023-08-26T10:40:01.678Z,70.9
2023-08-26T10:41:02.184Z,70.7
2023-08-26T10:42:03.238Z,70.8
2023-08-26T10:43:02.093Z,71.1
2023-08-26T10:44:03.256Z,70.9
2023-08-26T10:45:03.753Z,71.2
2023-08-26T10:46:01.600Z,71.2
2023-08-26T10:47:02.045Z,70.2
2023-08-26T10:48:01.727Z,70.5
2023-08-26T10:49:03.555Z,71
2023-08-26T10:50:03.109Z,71.1
2023-08-26T10:51:01.909Z,69.9
2023-08-26T10:52:01.360Z,70.9
2023-08-26T10:53:01.841Z,71.2
2023-08-26T10:54:01.293Z,71.4
2023-08-26T10:55:03.401Z,70.6
2023-08-26T10:56:02.268Z,70.7
2023-08-26T10:57:02.354Z,70.7
2023-08-26T10:58:02.506Z,69.3
2023-08-26T10:59:01.627Z,68.7
2023-08-26T11:00:03.706Z,69.4
2023-08-26T11:01:01.583Z,69
2023-08-26T11:02:01.972Z,69.2
2023-08-26T11:03:03.212Z,69.2
2023-08-26T11:04:01.882Z,69.5
2023-08-26T11:05:03.057Z,69.3
2023-08-26T11:06:03.529Z,69.8
2023-08-26T11:07:02.943Z,69.5
2023-08-26T11:08:01.777Z,69.8
2023-08-26T11:09:03.906Z,69.2
2023-08-26T11:10:01.717Z,69.1
2023-08-26T11:11:03.808Z,69.2
2023-08-26T11:12:03.268Z,69.6
2023-08-26T11:13:02.107Z,69.9
2023-08-26T11:14:03.189Z,70.1
2023-08-26T11:15:03.676Z,70.6
2023-08-26T11:16:03.114Z,69.3
2023-08-26T11:17:03.509Z,69.4
2023-08-26T11:18:01.545Z,69.9
2023-08-26T11:19:03.458Z,69
2023-08-26T11:20:02.260Z,68.6
2023-08-26T11:21:03.387Z,69.3
2023-08-26T11:22:03.766Z,69.4
2023-08-26T11:23:03.259Z,69.7
2023-08-26T11:24:02.050Z,69.9
2023-08-26T11:25:01.546Z,69.9
2023-08-26T11:26:03.663Z,68.7
2023-08-26T11:27:03.137Z,68.7
2023-08-26T11:28:03.530Z,69.4
2023-08-26T11:29:01.367Z,69.9
2023-08-26T11:30:01.828Z,68.9
2023-08-26T11:31:02.947Z,68.6
2023-08-26T11:32:01.757Z,68.5
2023-08-26T11:33:03.889Z,68.5
2023-08-26T11:34:01.599Z,69.2
2023-08-26T11:35:03.737Z,68.7
2023-08-26T11:36:09.420Z,68.1
2023-08-26T11:37:02.018Z,69.5
2023-08-26T11:38:03.155Z,69
2023-08-26T11:39:03.593Z,69.6
2023-08-26T11:40:01.330Z,69.1
2023-08-26T11:41:03.439Z,69.1
2023-08-26T11:42:03.851Z,69.1
2023-08-26T11:43:01.689Z,68.5
2023-08-26T11:44:02.126Z,69.2
2023-08-26T11:45:01.659Z,68.8
2023-08-26T11:46:02.154Z,68.4
2023-08-26T11:47:03.180Z,68.2
2023-08-26T11:48:02.088Z,66.7
2023-08-26T11:49:01.456Z,67
2023-08-26T11:50:01.887Z,66.1
2023-08-26T11:51:01.357Z,66
2023-08-26T11:52:03.495Z,66.6
2023-08-26T11:53:03.035Z,65.3
2023-08-26T11:54:01.738Z,65.3
2023-08-26T11:55:02.235Z,65.2
2023-08-26T11:56:01.653Z,65.1
2023-08-26T11:57:03.937Z,65.3
2023-08-26T11:58:01.594Z,63.5
2023-08-26T11:59:02.127Z,62.7
2023-08-26T12:00:01.549Z,61.7
2023-08-26T12:01:02.086Z,61.4
2023-08-26T12:02:01.439Z,62.6
2023-08-26T12:03:01.958Z,62.4
2023-08-26T12:04:01.429Z,63.4
2023-08-26T12:05:01.882Z,62.5
2023-08-26T12:06:01.388Z,62.9
2023-08-26T12:07:01.805Z,62.7
2023-08-26T12:09:03.461Z,63.5
2023-08-26T12:10:02.162Z,62.7
2023-08-26T12:11:01.656Z,63.5
2023-08-26T12:12:03.748Z,61.6
2023-08-26T12:13:01.623Z,62.3
2023-08-26T12:14:03.736Z,62.5
2023-08-26T12:15:01.530Z,61.4
2023-08-26T12:16:01.976Z,61.9
2023-08-26T12:17:04.348Z,62.3
2023-08-26T12:18:02.579Z,61.9
2023-08-26T12:19:02.998Z,61.6
2023-08-26T12:20:01.800Z,61.2
2023-08-26T12:22:01.691Z,62.3
2023-08-26T12:23:02.210Z,61.4
2023-08-26T12:24:01.654Z,61.7
2023-08-26T12:25:03.826Z,62
2023-08-26T12:26:01.653Z,63.2
2023-08-26T12:27:02.040Z,61.5
2023-08-26T12:28:01.488Z,62.2
2023-08-26T12:29:03.583Z,62.2
2023-08-26T12:30:01.388Z,62.8
2023-08-26T12:31:01.916Z,63.1
2023-08-26T12:32:02.927Z,62.8
2023-08-26T12:33:01.855Z,62.8
2023-08-26T12:34:02.301Z,62.6
2023-08-26T12:35:01.725Z,61.3
2023-08-26T12:36:02.155Z,62.5
2023-08-26T12:37:03.336Z,62.5
2023-08-26T12:38:02.061Z,62.7
2023-08-26T12:39:03.151Z,63.4
2023-08-26T12:40:02.008Z,62.7
2023-08-26T12:41:03.089Z,62.5
2023-08-26T12:42:01.874Z,62
2023-08-26T12:43:03.064Z,62.3
2023-08-26T12:44:01.828Z,62.3
2023-08-26T12:45:02.975Z,62.1
2023-08-26T12:46:03.414Z,61.9
2023-08-26T12:47:02.283Z,62.6
2023-08-26T12:48:01.901Z,62
2023-08-26T12:49:03.878Z,61.8
2023-08-26T12:50:03.286Z,63.1
2023-08-26T12:51:02.109Z,62.1
2023-08-26T12:52:01.554Z,62.3
2023-08-26T12:53:02.091Z,62.5
2023-08-26T12:54:01.517Z,61.2
2023-08-26T12:55:01.962Z,61.6
2023-08-26T12:56:01.457Z,61.7
2023-08-26T12:57:01.909Z,61.8
2023-08-26T12:58:03.673Z,60.7
2023-08-26T12:59:01.303Z,60.2
2023-08-26T13:00:03.410Z,60.3
2023-08-26T13:01:03.972Z,62
2023-08-26T13:02:01.702Z,62.9
2023-08-26T13:03:02.252Z,62.3
2023-08-26T13:04:01.607Z,60.9
2023-08-26T13:05:02.078Z,61
2023-08-26T13:06:03.148Z,60.9
2023-08-26T13:07:03.608Z,60.9
2023-08-26T13:08:01.417Z,60.7
2023-08-26T13:09:03.511Z,61.6
2023-08-26T13:10:03.388Z,61.5
2023-08-26T13:11:03.446Z,61.4
2023-08-26T13:12:02.250Z,60.9
2023-08-26T13:13:01.743Z,61.5
2023-08-26T13:14:02.141Z,60.7
2023-08-26T13:15:01.652Z,61
2023-08-26T13:16:02.198Z,61.1
2023-08-26T13:17:03.250Z,61.4
2023-08-26T13:18:04.112Z,61.6
2023-08-26T13:19:03.090Z,61.4
2023-08-26T13:20:01.906Z,60.3
2023-08-26T13:21:02.995Z,60.3
2023-08-26T13:22:01.801Z,60.8
2023-08-26T13:24:01.792Z,61.1
2023-08-26T13:25:03.783Z,61
2023-08-26T13:26:01.631Z,61.6
2023-08-26T13:27:03.773Z,61.7
2023-08-26T13:28:03.180Z,61.3
2023-08-26T13:29:03.666Z,61.6
2023-08-26T13:30:03.092Z,60.8